sensor_id;sensor_type;location;lat;lon;timestamp;temperature;humidity
45685;DHT22;46836;48.388;16.210;2023-04-24T00:00:04;14.80;99.90
45685;DHT22;46836;48.388;16.210;2023-04-24T00:02:39;14.80;99.90
45685;DHT22;46836;48.388;16.210;2023-04-24T00:05:07;14.80;99.90
45685;DHT22;46836;48.388;16.210;2023-04-24T00:07:35;14.80;99.90
45685;DHT22;46836;48.388;16.210;2023-04-24T00:10:02;14.80;99.90
45685;DHT22;46836;48.388;16.210;2023-04-24T00:12:29;14.80;99.90
45685;DHT22;46836;48.388;16.210;2023-04-24T00:14:57;14.80;99.90
45685;DHT22;46836;48.388;16.210;2023-04-24T00:17:24;14.70;99.90
45685;DHT22;46836;48.388;16.210;2023-04-24T00:19:51;14.70;99.90
45685;DHT22;46836;48.388;16.210;2023-04-24T00:22:26;14.70;99.90
45685;DHT22;46836;48.388;16.210;2023-04-24T00:24:53;14.70;99.90
45685;DHT22;46836;48.388;16.210;2023-04-24T00:27:21;14.70;99.90
45685;DHT22;46836;48.388;16.210;2023-04-24T00:29:48;14.70;99.90
45685;DHT22;46836;48.388;16.210;2023-04-24T00:32:15;14.70;99.90
45685;DHT22;46836;48.388;16.210;2023-04-24T00:34:42;14.60;99.90
45685;DHT22;46836;48.388;16.210;2023-04-24T00:37:09;14.60;99.90
45685;DHT22;46836;48.388;16.210;2023-04-24T00:39:36;14.60;99.90
45685;DHT22;46836;48.388;16.210;2023-04-24T00:42:03;14.60;99.90
45685;DHT22;46836;48.388;16.210;2023-04-24T00:44:33;14.50;99.90
45685;DHT22;46836;48.388;16.210;2023-04-24T00:47:01;14.50;99.90
45685;DHT22;46836;48.388;16.210;2023-04-24T00:49:28;14.40;99.90
45685;DHT22;46836;48.388;16.210;2023-04-24T00:51:55;14.40;99.90
45685;DHT22;46836;48.388;16.210;2023-04-24T00:54:23;14.40;99.90
45685;DHT22;46836;48.388;16.210;2023-04-24T00:56:50;14.30;99.90
45685;DHT22;46836;48.388;16.210;2023-04-24T00:59:18;14.30;99.90
45685;DHT22;46836;48.388;16.210;2023-04-24T01:01:45;14.30;99.90
45685;DHT22;46836;48.388;16.210;2023-04-24T01:04:13;14.20;99.90
45685;DHT22;46836;48.388;16.210;2023-04-24T01:06:41;14.10;99.90
45685;DHT22;46836;48.388;16.210;2023-04-24T01:09:10;14.00;99.90
45685;DHT22;46836;48.388;16.210;2023-04-24T01:11:39;14.00;99.90
45685;DHT22;46836;48.388;16.210;2023-04-24T01:14:07;13.90;99.90
45685;DHT22;46836;48.388;16.210;2023-04-24T01:16:34;13.80;99.90
45685;DHT22;46836;48.388;16.210;2023-04-24T01:19:02;13.70;99.90
45685;DHT22;46836;48.388;16.210;2023-04-24T01:21:30;13.70;99.90
45685;DHT22;46836;48.388;16.210;2023-04-24T01:24:00;13.60;99.90
45685;DHT22;46836;48.388;16.210;2023-04-24T01:26:27;13.60;99.90
45685;DHT22;46836;48.388;16.210;2023-04-24T01:28:54;13.40;99.90
45685;DHT22;46836;48.388;16.210;2023-04-24T01:31:21;13.30;99.90
45685;DHT22;46836;48.388;16.210;2023-04-24T01:33:49;13.20;99.90
45685;DHT22;46836;48.388;16.210;2023-04-24T01:36:16;13.10;99.90
45685;DHT22;46836;48.388;16.210;2023-04-24T01:38:44;13.10;99.90
45685;DHT22;46836;48.388;16.210;2023-04-24T01:41:11;12.90;99.90
45685;DHT22;46836;48.388;16.210;2023-04-24T01:43:38;12.90;99.90
45685;DHT22;46836;48.388;16.210;2023-04-24T01:46:06;12.80;99.90
45685;DHT22;46836;48.388;16.210;2023-04-24T01:48:33;12.70;99.90
45685;DHT22;46836;48.388;16.210;2023-04-24T01:51:00;12.60;99.90
45685;DHT22;46836;48.388;16.210;2023-04-24T01:53:27;12.50;99.90
45685;DHT22;46836;48.388;16.210;2023-04-24T01:55:54;12.40;99.90
45685;DHT22;46836;48.388;16.210;2023-04-24T01:58:22;12.30;99.90
45685;DHT22;46836;48.388;16.210;2023-04-24T02:00:49;12.20;99.90
45685;DHT22;46836;48.388;16.210;2023-04-24T02:03:17;12.20;99.90
45685;DHT22;46836;48.388;16.210;2023-04-24T02:05:44;12.10;99.90
45685;DHT22;46836;48.388;16.210;2023-04-24T02:08:12;12.10;99.90
45685;DHT22;46836;48.388;16.210;2023-04-24T02:10:39;12.10;99.90
45685;DHT22;46836;48.388;16.210;2023-04-24T02:13:05;12.00;99.90
45685;DHT22;46836;48.388;16.210;2023-04-24T02:15:32;12.00;99.90
45685;DHT22;46836;48.388;16.210;2023-04-24T02:17:59;12.00;99.90
45685;DHT22;46836;48.388;16.210;2023-04-24T02:20:27;11.90;99.90
45685;DHT22;46836;48.388;16.210;2023-04-24T02:22:54;11.90;99.90
45685;DHT22;46836;48.388;16.210;2023-04-24T02:25:21;11.80;99.90
45685;DHT22;46836;48.388;16.210;2023-04-24T02:27:48;11.80;99.90
45685;DHT22;46836;48.388;16.210;2023-04-24T02:30:15;11.80;99.90
45685;DHT22;46836;48.388;16.210;2023-04-24T02:32:42;11.70;99.90
45685;DHT22;46836;48.388;16.210;2023-04-24T02:35:10;11.70;99.90
45685;DHT22;46836;48.388;16.210;2023-04-24T02:37:37;11.70;99.90
45685;DHT22;46836;48.388;16.210;2023-04-24T02:40:04;11.70;99.90
45685;DHT22;46836;48.388;16.210;2023-04-24T02:42:32;11.60;99.90
45685;DHT22;46836;48.388;16.210;2023-04-24T02:44:59;11.50;99.90
45685;DHT22;46836;48.388;16.210;2023-04-24T02:47:26;11.50;99.90
45685;DHT22;46836;48.388;16.210;2023-04-24T02:49:53;11.50;99.90
45685;DHT22;46836;48.388;16.210;2023-04-24T02:52:20;11.50;99.90
45685;DHT22;46836;48.388;16.210;2023-04-24T02:54:47;11.50;99.90
45685;DHT22;46836;48.388;16.210;2023-04-24T02:57:14;11.40;99.90
45685;DHT22;46836;48.388;16.210;2023-04-24T02:59:41;11.40;99.90
45685;DHT22;46836;48.388;16.210;2023-04-24T03:02:09;11.40;99.90
45685;DHT22;46836;48.388;16.210;2023-04-24T03:04:36;11.40;99.90
45685;DHT22;46836;48.388;16.210;2023-04-24T03:07:03;11.40;99.90
45685;DHT22;46836;48.388;16.210;2023-04-24T03:09:31;11.40;99.90
45685;DHT22;46836;48.388;16.210;2023-04-24T03:11:58;11.40;99.90
45685;DHT22;46836;48.388;16.210;2023-04-24T03:14:25;11.40;99.90
45685;DHT22;46836;48.388;16.210;2023-04-24T03:16:52;11.30;99.90
45685;DHT22;46836;48.388;16.210;2023-04-24T03:19:19;11.30;99.90
45685;DHT22;46836;48.388;16.210;2023-04-24T03:21:46;11.30;99.90
45685;DHT22;46836;48.388;16.210;2023-04-24T03:24:13;11.30;99.90
45685;DHT22;46836;48.388;16.210;2023-04-24T03:26:40;11.30;99.90
45685;DHT22;46836;48.388;16.210;2023-04-24T03:29:07;11.20;99.90
45685;DHT22;46836;48.388;16.210;2023-04-24T03:31:34;11.20;99.90
45685;DHT22;46836;48.388;16.210;2023-04-24T03:34:01;11.20;99.90
45685;DHT22;46836;48.388;16.210;2023-04-24T03:36:28;11.20;99.90
45685;DHT22;46836;48.388;16.210;2023-04-24T03:38:55;11.10;99.90
45685;DHT22;46836;48.388;16.210;2023-04-24T03:41:22;11.10;99.90
45685;DHT22;46836;48.388;16.210;2023-04-24T03:43:49;11.10;99.90
45685;DHT22;46836;48.388;16.210;2023-04-24T03:46:16;11.00;99.90
45685;DHT22;46836;48.388;16.210;2023-04-24T03:48:43;11.00;99.90
45685;DHT22;46836;48.388;16.210;2023-04-24T03:51:10;11.00;99.90
45685;DHT22;46836;48.388;16.210;2023-04-24T03:53:37;11.00;99.90
45685;DHT22;46836;48.388;16.210;2023-04-24T03:56:05;11.00;99.90
45685;DHT22;46836;48.388;16.210;2023-04-24T03:58:32;11.00;99.90
45685;DHT22;46836;48.388;16.210;2023-04-24T04:00:59;11.00;99.90
45685;DHT22;46836;48.388;16.210;2023-04-24T04:03:26;11.00;99.90
45685;DHT22;46836;48.388;16.210;2023-04-24T04:05:54;11.10;99.90
45685;DHT22;46836;48.388;16.210;2023-04-24T04:08:21;11.10;99.90
45685;DHT22;46836;48.388;16.210;2023-04-24T04:10:48;11.10;99.90
45685;DHT22;46836;48.388;16.210;2023-04-24T04:13:15;11.20;99.90
45685;DHT22;46836;48.388;16.210;2023-04-24T04:15:42;11.20;99.90
45685;DHT22;46836;48.388;16.210;2023-04-24T04:18:09;11.30;99.90
45685;DHT22;46836;48.388;16.210;2023-04-24T04:20:36;11.30;99.90
45685;DHT22;46836;48.388;16.210;2023-04-24T04:23:03;11.30;99.90
45685;DHT22;46836;48.388;16.210;2023-04-24T04:25:30;11.40;99.90
45685;DHT22;46836;48.388;16.210;2023-04-24T04:27:57;11.50;99.90
45685;DHT22;46836;48.388;16.210;2023-04-24T04:30:26;11.60;99.90
45685;DHT22;46836;48.388;16.210;2023-04-24T04:32:53;11.60;99.90
45685;DHT22;46836;48.388;16.210;2023-04-24T04:35:20;11.60;99.90
45685;DHT22;46836;48.388;16.210;2023-04-24T04:37:48;11.70;99.90
45685;DHT22;46836;48.388;16.210;2023-04-24T04:40:16;11.70;99.90
45685;DHT22;46836;48.388;16.210;2023-04-24T04:42:43;11.70;99.90
45685;DHT22;46836;48.388;16.210;2023-04-24T04:45:12;11.80;99.90
45685;DHT22;46836;48.388;16.210;2023-04-24T04:47:39;11.80;99.90
45685;DHT22;46836;48.388;16.210;2023-04-24T04:50:07;11.80;99.90
45685;DHT22;46836;48.388;16.210;2023-04-24T04:52:34;11.80;99.90
45685;DHT22;46836;48.388;16.210;2023-04-24T04:55:01;11.70;99.90
45685;DHT22;46836;48.388;16.210;2023-04-24T04:57:28;11.80;99.90
45685;DHT22;46836;48.388;16.210;2023-04-24T04:59:55;11.80;99.90
45685;DHT22;46836;48.388;16.210;2023-04-24T05:02:22;11.70;99.90
45685;DHT22;46836;48.388;16.210;2023-04-24T05:04:49;11.70;99.90
45685;DHT22;46836;48.388;16.210;2023-04-24T05:07:17;11.80;99.90
45685;DHT22;46836;48.388;16.210;2023-04-24T05:09:45;11.90;99.90
45685;DHT22;46836;48.388;16.210;2023-04-24T05:12:12;12.10;99.90
45685;DHT22;46836;48.388;16.210;2023-04-24T05:14:39;12.10;99.90
45685;DHT22;46836;48.388;16.210;2023-04-24T05:17:06;12.20;99.90
45685;DHT22;46836;48.388;16.210;2023-04-24T05:19:33;12.20;99.90
45685;DHT22;46836;48.388;16.210;2023-04-24T05:22:02;12.10;99.90
45685;DHT22;46836;48.388;16.210;2023-04-24T05:24:31;12.10;99.90
45685;DHT22;46836;48.388;16.210;2023-04-24T05:26:58;12.10;99.90
45685;DHT22;46836;48.388;16.210;2023-04-24T05:29:25;12.10;99.90
45685;DHT22;46836;48.388;16.210;2023-04-24T05:31:53;12.10;99.90
45685;DHT22;46836;48.388;16.210;2023-04-24T05:34:20;12.10;99.90
45685;DHT22;46836;48.388;16.210;2023-04-24T05:36:48;12.00;99.90
45685;DHT22;46836;48.388;16.210;2023-04-24T05:39:15;12.00;99.90
45685;DHT22;46836;48.388;16.210;2023-04-24T05:41:42;12.20;99.90
45685;DHT22;46836;48.388;16.210;2023-04-24T05:44:09;12.30;99.90
45685;DHT22;46836;48.388;16.210;2023-04-24T05:46:36;12.40;99.90
45685;DHT22;46836;48.388;16.210;2023-04-24T05:49:03;12.50;99.90
45685;DHT22;46836;48.388;16.210;2023-04-24T05:51:30;12.60;99.90
45685;DHT22;46836;48.388;16.210;2023-04-24T05:53:58;12.80;99.90
45685;DHT22;46836;48.388;16.210;2023-04-24T05:56:25;12.90;99.90
45685;DHT22;46836;48.388;16.210;2023-04-24T05:58:52;13.10;99.90
45685;DHT22;46836;48.388;16.210;2023-04-24T06:01:19;13.20;99.90
45685;DHT22;46836;48.388;16.210;2023-04-24T06:03:47;13.30;99.90
45685;DHT22;46836;48.388;16.210;2023-04-24T06:06:14;13.50;99.90
45685;DHT22;46836;48.388;16.210;2023-04-24T06:08:42;13.60;99.90
45685;DHT22;46836;48.388;16.210;2023-04-24T06:11:10;13.60;99.90
45685;DHT22;46836;48.388;16.210;2023-04-24T06:13:37;13.70;99.90
45685;DHT22;46836;48.388;16.210;2023-04-24T06:16:05;13.80;99.90
45685;DHT22;46836;48.388;16.210;2023-04-24T06:18:32;13.90;99.90
45685;DHT22;46836;48.388;16.210;2023-04-24T06:20:59;14.00;99.90
45685;DHT22;46836;48.388;16.210;2023-04-24T06:23:26;14.10;99.90
45685;DHT22;46836;48.388;16.210;2023-04-24T06:25:53;14.20;99.90
45685;DHT22;46836;48.388;16.210;2023-04-24T06:28:20;14.40;99.90
45685;DHT22;46836;48.388;16.210;2023-04-24T06:30:47;14.50;99.90
45685;DHT22;46836;48.388;16.210;2023-04-24T06:33:15;14.70;99.90
45685;DHT22;46836;48.388;16.210;2023-04-24T06:35:47;14.70;99.90
45685;DHT22;46836;48.388;16.210;2023-04-24T06:38:14;14.80;99.90
45685;DHT22;46836;48.388;16.210;2023-04-24T06:40:43;14.80;99.90
45685;DHT22;46836;48.388;16.210;2023-04-24T06:43:10;14.90;99.90
45685;DHT22;46836;48.388;16.210;2023-04-24T06:45:38;14.90;99.90
45685;DHT22;46836;48.388;16.210;2023-04-24T06:48:06;15.00;99.90
45685;DHT22;46836;48.388;16.210;2023-04-24T06:50:34;15.00;99.90
45685;DHT22;46836;48.388;16.210;2023-04-24T06:53:02;15.10;99.90
45685;DHT22;46836;48.388;16.210;2023-04-24T06:55:29;15.10;99.90
45685;DHT22;46836;48.388;16.210;2023-04-24T06:57:56;15.20;99.90
45685;DHT22;46836;48.388;16.210;2023-04-24T07:00:23;15.30;99.90
45685;DHT22;46836;48.388;16.210;2023-04-24T07:02:51;15.30;99.90
45685;DHT22;46836;48.388;16.210;2023-04-24T07:05:18;15.40;99.90
45685;DHT22;46836;48.388;16.210;2023-04-24T07:07:48;15.50;99.90
45685;DHT22;46836;48.388;16.210;2023-04-24T07:10:17;15.50;99.90
45685;DHT22;46836;48.388;16.210;2023-04-24T07:12:44;15.50;99.90
45685;DHT22;46836;48.388;16.210;2023-04-24T07:15:12;15.60;99.90
45685;DHT22;46836;48.388;16.210;2023-04-24T07:17:39;15.60;99.90
45685;DHT22;46836;48.388;16.210;2023-04-24T07:20:10;15.60;99.90
45685;DHT22;46836;48.388;16.210;2023-04-24T07:22:38;15.60;99.90
45685;DHT22;46836;48.388;16.210;2023-04-24T07:25:06;15.60;99.90
45685;DHT22;46836;48.388;16.210;2023-04-24T07:27:34;15.60;99.90
45685;DHT22;46836;48.388;16.210;2023-04-24T07:30:04;15.70;99.90
45685;DHT22;46836;48.388;16.210;2023-04-24T07:32:31;15.70;99.90
45685;DHT22;46836;48.388;16.210;2023-04-24T07:34:58;15.70;99.90
45685;DHT22;46836;48.388;16.210;2023-04-24T07:37:25;15.80;99.90
45685;DHT22;46836;48.388;16.210;2023-04-24T07:39:53;15.90;99.90
45685;DHT22;46836;48.388;16.210;2023-04-24T07:42:20;15.90;99.90
45685;DHT22;46836;48.388;16.210;2023-04-24T07:44:47;15.90;99.90
45685;DHT22;46836;48.388;16.210;2023-04-24T07:47:14;16.00;99.90
45685;DHT22;46836;48.388;16.210;2023-04-24T07:49:43;16.10;99.90
45685;DHT22;46836;48.388;16.210;2023-04-24T07:52:11;16.00;99.90
45685;DHT22;46836;48.388;16.210;2023-04-24T07:54:38;16.10;99.90
45685;DHT22;46836;48.388;16.210;2023-04-24T07:57:05;16.00;99.90
45685;DHT22;46836;48.388;16.210;2023-04-24T07:59:33;16.00;99.90
45685;DHT22;46836;48.388;16.210;2023-04-24T08:02:01;16.00;99.90
45685;DHT22;46836;48.388;16.210;2023-04-24T08:04:28;16.00;99.90
45685;DHT22;46836;48.388;16.210;2023-04-24T08:06:55;16.00;99.90
45685;DHT22;46836;48.388;16.210;2023-04-24T08:09:23;15.90;99.90
45685;DHT22;46836;48.388;16.210;2023-04-24T08:11:53;15.90;99.90
45685;DHT22;46836;48.388;16.210;2023-04-24T08:14:20;15.90;99.90
45685;DHT22;46836;48.388;16.210;2023-04-24T08:16:47;15.90;99.90
45685;DHT22;46836;48.388;16.210;2023-04-24T08:19:14;15.90;99.90
45685;DHT22;46836;48.388;16.210;2023-04-24T08:21:42;15.80;99.90
45685;DHT22;46836;48.388;16.210;2023-04-24T08:24:09;15.80;99.90
45685;DHT22;46836;48.388;16.210;2023-04-24T08:26:36;15.70;99.90
45685;DHT22;46836;48.388;16.210;2023-04-24T08:29:03;15.70;99.90
45685;DHT22;46836;48.388;16.210;2023-04-24T08:31:30;15.70;99.90
45685;DHT22;46836;48.388;16.210;2023-04-24T08:33:57;15.70;99.90
45685;DHT22;46836;48.388;16.210;2023-04-24T08:36:24;15.70;99.90
45685;DHT22;46836;48.388;16.210;2023-04-24T08:39:05;15.70;99.90
45685;DHT22;46836;48.388;16.210;2023-04-24T08:41:34;15.70;99.90
45685;DHT22;46836;48.388;16.210;2023-04-24T08:44:02;15.60;99.90
45685;DHT22;46836;48.388;16.210;2023-04-24T08:46:30;15.60;99.90
45685;DHT22;46836;48.388;16.210;2023-04-24T08:48:58;15.60;99.90
45685;DHT22;46836;48.388;16.210;2023-04-24T08:51:26;15.50;99.90
45685;DHT22;46836;48.388;16.210;2023-04-24T08:53:54;15.50;99.90
45685;DHT22;46836;48.388;16.210;2023-04-24T08:56:22;15.50;99.90
45685;DHT22;46836;48.388;16.210;2023-04-24T08:58:54;15.50;99.90
45685;DHT22;46836;48.388;16.210;2023-04-24T09:01:23;15.40;99.90
45685;DHT22;46836;48.388;16.210;2023-04-24T09:03:53;15.40;99.90
45685;DHT22;46836;48.388;16.210;2023-04-24T09:06:23;15.30;99.90
45685;DHT22;46836;48.388;16.210;2023-04-24T09:08:54;15.20;99.90
45685;DHT22;46836;48.388;16.210;2023-04-24T09:11:24;15.10;99.90
45685;DHT22;46836;48.388;16.210;2023-04-24T09:13:53;15.00;99.90
45685;DHT22;46836;48.388;16.210;2023-04-24T09:16:21;15.00;99.90
45685;DHT22;46836;48.388;16.210;2023-04-24T09:18:51;14.90;99.90
45685;DHT22;46836;48.388;16.210;2023-04-24T09:21:21;14.90;99.90
45685;DHT22;46836;48.388;16.210;2023-04-24T09:24:01;14.90;99.90
45685;DHT22;46836;48.388;16.210;2023-04-24T09:26:30;14.90;99.90
45685;DHT22;46836;48.388;16.210;2023-04-24T09:29:01;14.80;99.90
45685;DHT22;46836;48.388;16.210;2023-04-24T09:31:29;14.70;99.90
45685;DHT22;46836;48.388;16.210;2023-04-24T09:34:04;14.60;99.90
45685;DHT22;46836;48.388;16.210;2023-04-24T09:36:42;14.60;99.90
45685;DHT22;46836;48.388;16.210;2023-04-24T09:39:14;14.50;99.90
45685;DHT22;46836;48.388;16.210;2023-04-24T09:41:54;14.40;99.90
45685;DHT22;46836;48.388;16.210;2023-04-24T09:44:27;14.40;99.90
45685;DHT22;46836;48.388;16.210;2023-04-24T09:46:56;14.30;99.90
45685;DHT22;46836;48.388;16.210;2023-04-24T09:49:26;14.30;99.90
45685;DHT22;46836;48.388;16.210;2023-04-24T09:52:06;14.20;99.90
45685;DHT22;46836;48.388;16.210;2023-04-24T09:54:34;14.20;99.90
45685;DHT22;46836;48.388;16.210;2023-04-24T09:57:04;14.20;99.90
45685;DHT22;46836;48.388;16.210;2023-04-24T09:59:31;14.20;99.90
45685;DHT22;46836;48.388;16.210;2023-04-24T10:02:00;14.10;99.90
45685;DHT22;46836;48.388;16.210;2023-04-24T10:04:28;14.20;99.90
45685;DHT22;46836;48.388;16.210;2023-04-24T10:06:56;14.20;99.90
45685;DHT22;46836;48.388;16.210;2023-04-24T10:09:26;14.20;99.90
45685;DHT22;46836;48.388;16.210;2023-04-24T10:11:54;14.20;99.90
45685;DHT22;46836;48.388;16.210;2023-04-24T10:14:25;14.20;99.90
45685;DHT22;46836;48.388;16.210;2023-04-24T10:16:55;14.10;99.90
45685;DHT22;46836;48.388;16.210;2023-04-24T10:19:26;14.10;99.90
45685;DHT22;46836;48.388;16.210;2023-04-24T10:21:53;14.10;99.90
45685;DHT22;46836;48.388;16.210;2023-04-24T10:24:22;14.10;99.90
45685;DHT22;46836;48.388;16.210;2023-04-24T10:26:49;14.10;99.90
45685;DHT22;46836;48.388;16.210;2023-04-24T10:29:18;14.10;99.90
45685;DHT22;46836;48.388;16.210;2023-04-24T10:31:45;14.10;99.90
45685;DHT22;46836;48.388;16.210;2023-04-24T10:34:16;14.10;99.90
45685;DHT22;46836;48.388;16.210;2023-04-24T10:36:54;14.10;99.90
45685;DHT22;46836;48.388;16.210;2023-04-24T10:39:24;14.10;99.90
45685;DHT22;46836;48.388;16.210;2023-04-24T10:41:54;14.10;99.90
45685;DHT22;46836;48.388;16.210;2023-04-24T10:44:25;14.10;99.90
45685;DHT22;46836;48.388;16.210;2023-04-24T10:46:55;14.10;99.90
45685;DHT22;46836;48.388;16.210;2023-04-24T10:49:30;14.10;99.90
45685;DHT22;46836;48.388;16.210;2023-04-24T10:52:03;14.10;99.90
45685;DHT22;46836;48.388;16.210;2023-04-24T10:54:36;14.10;99.90
45685;DHT22;46836;48.388;16.210;2023-04-24T10:59:51;14.10;99.90
45685;DHT22;46836;48.388;16.210;2023-04-24T11:02:36;14.10;99.90
45685;DHT22;46836;48.388;16.210;2023-04-24T11:05:04;14.10;99.90
45685;DHT22;46836;48.388;16.210;2023-04-24T11:10:54;14.10;99.90
45685;DHT22;46836;48.388;16.210;2023-04-24T11:13:24;14.20;99.90
45685;DHT22;46836;48.388;16.210;2023-04-24T11:18:43;14.30;99.90
45685;DHT22;46836;48.388;16.210;2023-04-24T11:21:17;14.30;99.90
45685;DHT22;46836;48.388;16.210;2023-04-24T11:23:45;14.30;99.90
45685;DHT22;46836;48.388;16.210;2023-04-24T11:26:18;14.30;99.90
45685;DHT22;46836;48.388;16.210;2023-04-24T11:28:50;14.20;99.90
45685;DHT22;46836;48.388;16.210;2023-04-24T11:31:36;14.10;99.90
45685;DHT22;46836;48.388;16.210;2023-04-24T11:34:11;14.00;99.90
45685;DHT22;46836;48.388;16.210;2023-04-24T11:36:43;13.90;99.90
45685;DHT22;46836;48.388;16.210;2023-04-24T11:39:11;13.70;99.90
45685;DHT22;46836;48.388;16.210;2023-04-24T11:41:38;13.80;99.90
45685;DHT22;46836;48.388;16.210;2023-04-24T11:44:09;13.80;99.90
45685;DHT22;46836;48.388;16.210;2023-04-24T11:46:37;14.00;99.90
45685;DHT22;46836;48.388;16.210;2023-04-24T11:49:08;14.10;99.90
45685;DHT22;46836;48.388;16.210;2023-04-24T11:51:35;14.30;99.90
45685;DHT22;46836;48.388;16.210;2023-04-24T11:54:19;14.40;99.90
45685;DHT22;46836;48.388;16.210;2023-04-24T11:56:47;14.60;99.90
45685;DHT22;46836;48.388;16.210;2023-04-24T11:59:14;14.90;99.90
45685;DHT22;46836;48.388;16.210;2023-04-24T12:01:48;15.00;99.90
45685;DHT22;46836;48.388;16.210;2023-04-24T12:04:17;15.20;99.90
45685;DHT22;46836;48.388;16.210;2023-04-24T12:07:04;15.40;99.90
45685;DHT22;46836;48.388;16.210;2023-04-24T12:12:11;15.70;99.90
45685;DHT22;46836;48.388;16.210;2023-04-24T12:14:50;15.90;99.90
45685;DHT22;46836;48.388;16.210;2023-04-24T12:17:17;16.00;99.90
45685;DHT22;46836;48.388;16.210;2023-04-24T12:19:48;16.10;99.90
45685;DHT22;46836;48.388;16.210;2023-04-24T12:22:15;16.20;99.90
45685;DHT22;46836;48.388;16.210;2023-04-24T12:25:03;16.40;99.90
45685;DHT22;46836;48.388;16.210;2023-04-24T12:27:33;16.50;99.90
45685;DHT22;46836;48.388;16.210;2023-04-24T12:30:09;16.70;99.90
45685;DHT22;46836;48.388;16.210;2023-04-24T12:32:41;16.90;99.90
45685;DHT22;46836;48.388;16.210;2023-04-24T12:35:09;16.80;99.90
45685;DHT22;46836;48.388;16.210;2023-04-24T12:37:36;16.80;99.90
45685;DHT22;46836;48.388;16.210;2023-04-24T12:40:11;16.70;99.90
45685;DHT22;46836;48.388;16.210;2023-04-24T12:42:50;16.70;99.90
45685;DHT22;46836;48.388;16.210;2023-04-24T12:45:18;16.70;99.90
45685;DHT22;46836;48.388;16.210;2023-04-24T12:47:46;16.70;99.90
45685;DHT22;46836;48.388;16.210;2023-04-24T12:50:15;16.70;99.90
45685;DHT22;46836;48.388;16.210;2023-04-24T12:52:44;16.90;99.90
45685;DHT22;46836;48.388;16.210;2023-04-24T12:55:12;17.10;99.90
45685;DHT22;46836;48.388;16.210;2023-04-24T12:57:39;17.20;99.90
45685;DHT22;46836;48.388;16.210;2023-04-24T13:00:08;17.40;99.90
45685;DHT22;46836;48.388;16.210;2023-04-24T13:02:36;17.50;99.90
45685;DHT22;46836;48.388;16.210;2023-04-24T13:05:04;17.60;99.90
45685;DHT22;46836;48.388;16.210;2023-04-24T13:07:31;17.60;99.90
45685;DHT22;46836;48.388;16.210;2023-04-24T13:09:58;17.50;99.90
45685;DHT22;46836;48.388;16.210;2023-04-24T13:12:25;17.50;99.90
45685;DHT22;46836;48.388;16.210;2023-04-24T13:14:53;17.50;99.90
45685;DHT22;46836;48.388;16.210;2023-04-24T13:17:22;17.50;99.90
45685;DHT22;46836;48.388;16.210;2023-04-24T13:19:51;17.30;99.90
45685;DHT22;46836;48.388;16.210;2023-04-24T13:22:18;17.20;99.90
45685;DHT22;46836;48.388;16.210;2023-04-24T13:24:45;17.20;99.90
45685;DHT22;46836;48.388;16.210;2023-04-24T13:27:16;17.20;99.90
45685;DHT22;46836;48.388;16.210;2023-04-24T13:29:44;17.10;99.90
45685;DHT22;46836;48.388;16.210;2023-04-24T13:32:11;17.10;99.90
45685;DHT22;46836;48.388;16.210;2023-04-24T13:34:38;17.00;99.90
45685;DHT22;46836;48.388;16.210;2023-04-24T13:37:05;17.00;99.90
45685;DHT22;46836;48.388;16.210;2023-04-24T13:39:33;16.80;99.90
45685;DHT22;46836;48.388;16.210;2023-04-24T13:42:00;16.70;99.90
45685;DHT22;46836;48.388;16.210;2023-04-24T13:44:30;16.50;99.90
45685;DHT22;46836;48.388;16.210;2023-04-24T13:46:58;16.30;99.90
45685;DHT22;46836;48.388;16.210;2023-04-24T13:49:26;16.10;99.90
45685;DHT22;46836;48.388;16.210;2023-04-24T13:51:54;16.00;99.90
45685;DHT22;46836;48.388;16.210;2023-04-24T13:54:22;15.80;99.90
45685;DHT22;46836;48.388;16.210;2023-04-24T13:56:53;15.70;99.90
45685;DHT22;46836;48.388;16.210;2023-04-24T13:59:20;15.60;99.90
45685;DHT22;46836;48.388;16.210;2023-04-24T14:01:50;15.50;99.90
45685;DHT22;46836;48.388;16.210;2023-04-24T14:04:17;15.50;99.90
45685;DHT22;46836;48.388;16.210;2023-04-24T14:06:44;15.50;99.90
45685;DHT22;46836;48.388;16.210;2023-04-24T14:09:11;15.60;99.90
45685;DHT22;46836;48.388;16.210;2023-04-24T14:11:39;15.70;99.90
45685;DHT22;46836;48.388;16.210;2023-04-24T14:14:07;15.80;99.90
45685;DHT22;46836;48.388;16.210;2023-04-24T14:16:35;15.90;99.90
45685;DHT22;46836;48.388;16.210;2023-04-24T14:19:02;16.00;99.90
45685;DHT22;46836;48.388;16.210;2023-04-24T14:21:29;16.00;99.90
45685;DHT22;46836;48.388;16.210;2023-04-24T14:23:57;16.00;99.90
45685;DHT22;46836;48.388;16.210;2023-04-24T14:26:24;16.10;99.90
45685;DHT22;46836;48.388;16.210;2023-04-24T14:28:51;16.20;99.90
45685;DHT22;46836;48.388;16.210;2023-04-24T14:31:37;16.30;99.90
45685;DHT22;46836;48.388;16.210;2023-04-24T14:34:04;16.40;99.90
45685;DHT22;46836;48.388;16.210;2023-04-24T14:36:31;16.50;99.90
45685;DHT22;46836;48.388;16.210;2023-04-24T14:38:58;16.50;99.90
45685;DHT22;46836;48.388;16.210;2023-04-24T14:41:25;16.50;99.90
45685;DHT22;46836;48.388;16.210;2023-04-24T14:43:52;16.50;99.90
45685;DHT22;46836;48.388;16.210;2023-04-24T14:46:20;16.50;99.90
45685;DHT22;46836;48.388;16.210;2023-04-24T14:48:47;16.50;99.90
45685;DHT22;46836;48.388;16.210;2023-04-24T14:51:14;16.60;99.90
45685;DHT22;46836;48.388;16.210;2023-04-24T14:53:41;16.60;99.90
45685;DHT22;46836;48.388;16.210;2023-04-24T14:56:08;16.70;99.90
45685;DHT22;46836;48.388;16.210;2023-04-24T14:58:35;16.70;99.90
45685;DHT22;46836;48.388;16.210;2023-04-24T15:01:02;16.60;99.90
45685;DHT22;46836;48.388;16.210;2023-04-24T15:03:29;16.60;99.90
45685;DHT22;46836;48.388;16.210;2023-04-24T15:05:58;16.60;99.90
45685;DHT22;46836;48.388;16.210;2023-04-24T15:08:25;16.60;99.90
45685;DHT22;46836;48.388;16.210;2023-04-24T15:10:52;16.50;99.90
45685;DHT22;46836;48.388;16.210;2023-04-24T15:13:19;16.40;99.90
45685;DHT22;46836;48.388;16.210;2023-04-24T15:15:47;16.30;99.90
45685;DHT22;46836;48.388;16.210;2023-04-24T15:18:14;16.20;99.90
45685;DHT22;46836;48.388;16.210;2023-04-24T15:20:41;16.20;99.90
45685;DHT22;46836;48.388;16.210;2023-04-24T15:23:09;16.10;99.90
45685;DHT22;46836;48.388;16.210;2023-04-24T15:25:37;16.00;99.90
45685;DHT22;46836;48.388;16.210;2023-04-24T15:28:05;15.90;99.90
45685;DHT22;46836;48.388;16.210;2023-04-24T15:30:33;15.70;99.90
45685;DHT22;46836;48.388;16.210;2023-04-24T15:33:04;15.40;99.90